createdAt,value
2018-03-20T00:00:31.526Z,8.52
2018-03-20T00:02:59.659Z,8.77
2018-03-20T00:05:27.823Z,13.20
2018-03-20T00:07:55.949Z,8.85
2018-03-20T00:10:24.108Z,8.45
2018-03-20T00:12:52.233Z,8.75
2018-03-20T00:15:20.392Z,7.37
2018-03-20T00:17:48.512Z,7.97
2018-03-20T00:20:16.660Z,8.75
2018-03-20T00:22:44.794Z,7.85
2018-03-20T00:25:12.953Z,11.10
2018-03-20T00:27:41.087Z,9.07
2018-03-20T00:30:09.244Z,10.57
2018-03-20T00:32:37.386Z,12.85
2018-03-20T00:35:05.554Z,11.23
2018-03-20T00:37:33.681Z,9.30
2018-03-20T00:40:01.849Z,9.23
2018-03-20T00:42:29.983Z,6.60
2018-03-20T00:44:58.109Z,7.65
2018-03-20T00:47:26.265Z,12.93
2018-03-20T00:49:54.397Z,8.52
2018-03-20T00:52:22.551Z,7.40
2018-03-20T00:54:50.682Z,10.68
2018-03-20T00:57:18.842Z,11.20
2018-03-20T00:59:46.982Z,14.27
2018-03-20T01:02:15.139Z,12.82
2018-03-20T01:04:43.270Z,9.27
2018-03-20T01:07:11.431Z,11.12
2018-03-20T01:09:39.564Z,10.13
2018-03-20T01:12:07.716Z,10.93
2018-03-20T01:14:35.850Z,10.07
2018-03-20T01:17:04.776Z,10.07
2018-03-20T01:19:32.904Z,10.90
2018-03-20T01:22:01.830Z,10.23
2018-03-20T01:24:29.957Z,12.50
2018-03-20T01:26:58.114Z,13.45
2018-03-20T01:29:26.237Z,8.18
2018-03-20T01:31:54.393Z,12.25
2018-03-20T01:34:22.530Z,10.45
2018-03-20T01:36:50.681Z,14.73
2018-03-20T01:39:18.800Z,11.15
2018-03-20T01:41:46.953Z,11.00
2018-03-20T01:44:15.110Z,14.55
2018-03-20T01:46:43.245Z,14.73
2018-03-20T01:49:12.162Z,12.10
2018-03-20T01:51:40.293Z,13.57
2018-03-20T01:54:08.444Z,13.55
2018-03-20T01:56:36.567Z,10.88
2018-03-20T01:59:04.726Z,16.17
2018-03-20T02:01:32.862Z,14.73
2018-03-20T02:04:01.013Z,12.95
2018-03-20T02:06:29.146Z,10.63
2018-03-20T02:08:57.297Z,11.02
2018-03-20T02:11:25.421Z,14.95
2018-03-20T02:13:53.578Z,13.27
2018-03-20T02:16:21.700Z,16.37
2018-03-20T02:21:25.669Z,12.07
2018-03-20T02:23:53.828Z,15.30
2018-03-20T02:26:22.732Z,12.52
2018-03-20T02:28:50.885Z,12.65
2018-03-20T02:31:19.018Z,14.73
2018-03-20T02:33:47.168Z,11.77
2018-03-20T02:36:15.298Z,11.70
2018-03-20T02:38:43.467Z,15.63
2018-03-20T02:41:11.592Z,22.52
2018-03-20T02:43:39.746Z,19.62
2018-03-20T02:46:08.322Z,14.90
2018-03-20T02:48:37.250Z,22.90
2018-03-20T02:51:05.393Z,18.12
2018-03-20T02:53:33.531Z,15.90
2018-03-20T02:56:01.697Z,21.50
2018-03-20T02:58:29.833Z,22.10
2018-03-20T03:00:57.991Z,16.30
2018-03-20T03:03:26.125Z,18.35
2018-03-20T03:05:54.282Z,19.77
2018-03-20T03:08:22.407Z,18.58
2018-03-20T03:10:50.556Z,19.95
2018-03-20T03:13:18.693Z,18.40
2018-03-20T03:15:46.849Z,21.12
2018-03-20T03:18:14.985Z,22.85
2018-03-20T03:20:43.142Z,20.65
2018-03-20T03:23:11.274Z,20.37
2018-03-20T03:25:39.426Z,17.27
2018-03-20T03:28:07.569Z,18.77
2018-03-20T03:30:35.722Z,23.40
2018-03-20T03:33:03.854Z,20.67
2018-03-20T03:35:32.013Z,19.42
2018-03-20T03:38:00.146Z,18.65
2018-03-20T03:40:28.311Z,22.30
2018-03-20T03:42:56.441Z,19.67
2018-03-20T03:45:24.604Z,18.80
2018-03-20T03:47:52.736Z,21.62
2018-03-20T03:50:20.892Z,37.55
2018-03-20T03:52:49.024Z,23.08
2018-03-20T03:55:17.948Z,22.73
2018-03-20T03:57:46.115Z,25.70
2018-03-20T04:00:14.246Z,25.77
2018-03-20T04:02:42.408Z,27.33
2018-03-20T04:05:10.546Z,25.67
2018-03-20T04:07:38.703Z,22.52
2018-03-20T04:10:06.837Z,26.50
2018-03-20T04:12:35.005Z,26.20
2018-03-20T04:15:03.144Z,22.10
2018-03-20T04:17:31.297Z,23.27
2018-03-20T04:19:59.430Z,24.25
2018-03-20T04:22:27.589Z,28.52
2018-03-20T04:24:55.721Z,25.90
2018-03-20T04:27:23.884Z,23.75
2018-03-20T04:29:52.013Z,24.85
2018-03-20T04:32:20.173Z,26.52
2018-03-20T04:34:48.309Z,37.25
2018-03-20T04:37:16.464Z,28.08
2018-03-20T04:39:45.368Z,30.85
2018-03-20T04:42:13.533Z,30.00
2018-03-20T04:44:41.670Z,26.73
2018-03-20T04:47:09.836Z,32.45
2018-03-20T04:49:37.965Z,29.25
2018-03-20T04:54:40.447Z,32.70
2018-03-20T04:57:08.610Z,36.25
2018-03-20T04:59:36.747Z,36.05
2018-03-20T05:02:04.925Z,34.72
2018-03-20T05:04:33.058Z,35.30
2018-03-20T05:07:01.189Z,33.60
2018-03-20T05:09:29.345Z,39.75
2018-03-20T05:11:57.478Z,34.55
2018-03-20T05:14:25.651Z,32.72
2018-03-20T05:16:53.790Z,33.22
2018-03-20T05:19:22.550Z,32.25
2018-03-20T05:24:51.773Z,40.00
2018-03-20T05:27:19.908Z,52.62
2018-03-20T05:29:48.064Z,46.72
2018-03-20T05:32:16.201Z,44.03
2018-03-20T05:34:44.358Z,45.12
2018-03-20T05:37:12.506Z,39.47
2018-03-20T05:39:40.656Z,50.28
2018-03-20T05:42:08.789Z,36.13
2018-03-20T05:44:36.945Z,34.25
2018-03-20T05:47:25.732Z,39.92
2018-03-20T05:49:59.430Z,37.92
2018-03-20T05:52:30.173Z,39.67
2018-03-20T05:54:59.105Z,41.53
2018-03-20T05:57:27.232Z,41.30
2018-03-20T05:59:56.163Z,32.72
2018-03-20T06:02:24.297Z,40.53
2018-03-20T06:04:52.456Z,39.25
2018-03-20T06:07:20.582Z,43.85
2018-03-20T06:09:48.734Z,30.65
2018-03-20T06:12:16.872Z,28.23
2018-03-20T06:14:45.021Z,25.88
2018-03-20T06:17:13.153Z,30.77
2018-03-20T06:19:41.312Z,29.30
2018-03-20T06:22:09.438Z,24.70
2018-03-20T06:24:37.620Z,24.98
2018-03-20T06:27:05.757Z,25.20
2018-03-20T06:29:33.932Z,22.00
2018-03-20T06:32:02.072Z,26.05
2018-03-20T06:34:30.229Z,24.23
2018-03-20T06:36:58.368Z,20.15
2018-03-20T06:39:26.537Z,17.35
2018-03-20T06:41:54.692Z,15.48
2018-03-20T06:44:22.827Z,17.35
2018-03-20T06:46:51.049Z,17.60
2018-03-20T06:49:19.193Z,16.37
2018-03-20T06:51:47.368Z,20.33
2018-03-20T06:54:15.502Z,17.83
2018-03-20T06:56:43.673Z,17.98
2018-03-20T06:59:11.812Z,16.62
2018-03-20T07:01:39.970Z,20.70
2018-03-20T07:04:08.096Z,31.00
2018-03-20T07:06:36.289Z,28.95
2018-03-20T07:09:04.421Z,17.98
2018-03-20T07:11:32.582Z,16.40
2018-03-20T07:14:00.723Z,17.30
2018-03-20T07:16:28.886Z,16.90
2018-03-20T07:18:57.023Z,17.55
2018-03-20T07:21:25.178Z,17.65
2018-03-20T07:23:53.315Z,15.73
2018-03-20T07:26:21.477Z,20.55
2018-03-20T07:28:49.609Z,17.15
2018-03-20T07:31:17.777Z,17.67
2018-03-20T07:33:45.915Z,20.05
2018-03-20T07:36:14.073Z,20.17
2018-03-20T07:38:42.205Z,16.83
2018-03-20T07:41:10.338Z,19.00
2018-03-20T07:43:38.523Z,22.48
2018-03-20T07:46:06.662Z,15.38
2018-03-20T07:48:34.847Z,17.40
2018-03-20T07:51:02.985Z,17.65
2018-03-20T07:53:31.142Z,14.82
2018-03-20T07:55:59.282Z,13.68
2018-03-20T07:58:28.206Z,17.00
2018-03-20T08:00:56.341Z,14.70
2018-03-20T08:03:24.501Z,13.48
2018-03-20T08:05:52.632Z,15.43
2018-03-20T08:08:20.792Z,14.95
2018-03-20T08:10:48.918Z,9.68
2018-03-20T08:13:17.070Z,11.00
2018-03-20T08:15:45.195Z,9.55
2018-03-20T08:18:14.104Z,10.60
2018-03-20T08:20:42.238Z,14.10
2018-03-20T08:23:10.393Z,9.45
2018-03-20T08:25:38.574Z,9.57
2018-03-20T08:28:06.722Z,9.75
2018-03-20T08:30:34.860Z,10.23
2018-03-20T08:33:03.013Z,7.28
2018-03-20T08:35:31.150Z,7.78
2018-03-20T08:37:59.314Z,8.07
2018-03-20T08:40:27.438Z,7.78
2018-03-20T08:42:55.590Z,6.68
2018-03-20T08:45:23.722Z,8.75
2018-03-20T08:47:51.901Z,9.90
2018-03-20T08:50:20.030Z,8.27
2018-03-20T08:52:48.151Z,8.23
2018-03-20T08:55:16.307Z,7.82
2018-03-20T08:57:44.434Z,7.07
2018-03-20T09:00:12.596Z,5.70
2018-03-20T09:02:40.721Z,5.20
2018-03-20T09:05:08.885Z,5.93
2018-03-20T09:07:37.052Z,5.85
2018-03-20T09:10:05.206Z,5.95
2018-03-20T09:12:33.348Z,4.53
2018-03-20T09:15:01.506Z,6.03
2018-03-20T09:17:29.681Z,4.30
2018-03-20T09:19:57.834Z,4.80
2018-03-20T09:22:25.973Z,4.07
2018-03-20T09:24:54.168Z,5.35
2018-03-20T09:27:23.063Z,5.55
2018-03-20T09:29:51.278Z,6.07
2018-03-20T09:32:19.381Z,10.35
2018-03-20T09:34:47.533Z,9.25
2018-03-20T09:37:15.658Z,5.43
2018-03-20T09:39:43.827Z,5.97
2018-03-20T09:42:12.724Z,5.78
2018-03-20T09:44:40.891Z,5.50
2018-03-20T09:47:09.787Z,6.70
2018-03-20T09:49:37.941Z,4.65
2018-03-20T09:52:06.061Z,7.50
2018-03-20T09:54:34.212Z,5.12
2018-03-20T09:57:02.337Z,4.57
2018-03-20T09:59:30.490Z,5.32
2018-03-20T10:01:58.610Z,7.00
2018-03-20T10:04:26.757Z,5.07
2018-03-20T10:06:54.878Z,5.70
2018-03-20T10:09:23.117Z,8.38
2018-03-20T10:11:51.265Z,7.00
2018-03-20T10:14:19.392Z,11.73
2018-03-20T10:16:47.547Z,10.93
2018-03-20T10:19:15.670Z,5.75
2018-03-20T10:21:43.818Z,5.25
2018-03-20T10:24:12.702Z,6.50
2018-03-20T10:26:40.850Z,4.85
2018-03-20T10:29:08.976Z,5.57
2018-03-20T10:31:37.123Z,7.25
2018-03-20T10:34:06.208Z,4.78
2018-03-20T10:36:34.350Z,5.40
2018-03-20T10:39:02.477Z,5.80
2018-03-20T10:41:30.650Z,4.78
2018-03-20T10:43:58.796Z,8.82
2018-03-20T10:46:26.945Z,6.85
2018-03-20T10:48:55.080Z,6.62
2018-03-20T10:51:23.227Z,5.18
2018-03-20T10:53:51.340Z,6.60
2018-03-20T10:56:19.527Z,5.57
2018-03-20T10:58:47.658Z,6.62
2018-03-20T11:01:21.369Z,5.00
2018-03-20T11:03:49.493Z,9.80
2018-03-20T11:06:17.638Z,5.97
2018-03-20T11:08:45.766Z,10.43
2018-03-20T11:11:14.681Z,6.50
2018-03-20T11:13:42.808Z,11.38
2018-03-20T11:16:10.958Z,8.60
2018-03-20T11:18:39.085Z,7.82
2018-03-20T11:21:07.255Z,8.00
2018-03-20T11:23:35.384Z,4.72
2018-03-20T11:26:03.533Z,4.97
2018-03-20T11:28:31.664Z,5.35
2018-03-20T11:30:59.829Z,7.95
2018-03-20T11:33:27.958Z,8.40
2018-03-20T11:35:56.095Z,4.40
2018-03-20T11:38:25.056Z,3.30
2018-03-20T11:40:53.198Z,3.67
2018-03-20T11:43:21.357Z,4.30
2018-03-20T11:45:49.487Z,5.15
2018-03-20T11:48:17.638Z,8.05
2018-03-20T11:50:45.761Z,3.83
2018-03-20T11:53:13.925Z,4.93
2018-03-20T11:55:42.090Z,12.35
2018-03-20T11:58:10.246Z,4.97
2018-03-20T12:00:38.375Z,13.40
2018-03-20T12:03:06.549Z,14.13
2018-03-20T12:05:34.697Z,12.80
2018-03-20T12:08:14.570Z,6.00
2018-03-20T12:10:42.689Z,4.47
2018-03-20T12:13:10.851Z,30.40
2018-03-20T12:15:38.979Z,3.97
2018-03-20T12:18:07.125Z,4.22
2018-03-20T12:20:36.017Z,5.72
2018-03-20T12:23:04.162Z,4.22
2018-03-20T12:25:32.285Z,3.83
2018-03-20T12:28:00.437Z,3.70
2018-03-20T12:30:28.571Z,1.95
2018-03-20T12:32:56.722Z,8.35
2018-03-20T12:35:24.841Z,7.32
2018-03-20T12:37:52.989Z,5.62
2018-03-20T12:40:21.133Z,2.00
2018-03-20T12:42:49.324Z,2.75
2018-03-20T12:45:17.445Z,2.62
2018-03-20T12:47:46.378Z,6.10
2018-03-20T12:50:14.529Z,3.65
2018-03-20T12:52:43.437Z,2.80
2018-03-20T12:55:11.591Z,1.90
2018-03-20T12:57:40.510Z,3.15
2018-03-20T13:00:08.655Z,2.70
2018-03-20T13:02:37.565Z,3.80
2018-03-20T13:05:05.716Z,3.42
2018-03-20T13:07:34.606Z,4.07
2018-03-20T13:10:02.758Z,7.57
2018-03-20T13:12:30.891Z,6.03
2018-03-20T13:14:59.086Z,20.92
2018-03-20T13:17:27.218Z,10.85
2018-03-20T13:19:55.387Z,10.18
2018-03-20T13:22:23.522Z,7.05
2018-03-20T13:24:51.673Z,3.60
2018-03-20T13:27:19.816Z,2.90
2018-03-20T13:29:47.963Z,1.80
2018-03-20T13:32:16.856Z,5.25
2018-03-20T13:34:45.021Z,2.00
2018-03-20T13:37:13.941Z,1.65
2018-03-20T13:39:42.078Z,4.62
2018-03-20T13:42:10.720Z,3.10
2018-03-20T13:44:38.931Z,2.08
2018-03-20T13:47:07.082Z,2.25
2018-03-20T13:49:35.245Z,1.73
2018-03-20T13:52:03.397Z,2.00
2018-03-20T13:54:31.520Z,1.87
2018-03-20T13:56:59.929Z,3.83
2018-03-20T13:59:28.085Z,1.92
2018-03-20T14:01:56.243Z,3.70
2018-03-20T14:04:24.385Z,4.18
2018-03-20T14:06:52.540Z,1.70
2018-03-20T14:09:20.677Z,2.50
2018-03-20T14:11:48.861Z,13.02
2018-03-20T14:14:17.790Z,41.70
2018-03-20T14:16:45.959Z,16.80
2018-03-20T14:19:14.088Z,7.35
2018-03-20T14:21:42.242Z,5.05
2018-03-20T14:24:10.372Z,3.05
2018-03-20T14:26:38.517Z,1.40
2018-03-20T14:29:06.674Z,3.30
2018-03-20T14:31:34.824Z,2.78
2018-03-20T14:34:02.944Z,4.47
2018-03-20T14:36:31.102Z,4.12
2018-03-20T14:39:00.013Z,4.50
2018-03-20T14:41:28.210Z,2.33
2018-03-20T14:43:56.385Z,1.55
2018-03-20T14:46:24.489Z,3.20
2018-03-20T14:48:52.639Z,1.73
2018-03-20T14:51:20.769Z,2.37
2018-03-20T14:53:49.681Z,1.08
2018-03-20T14:56:17.817Z,14.13
2018-03-20T14:58:45.969Z,4.80
2018-03-20T15:01:14.115Z,2.20
2018-03-20T15:03:42.262Z,2.92
2018-03-20T15:06:10.390Z,1.50
2018-03-20T15:08:38.536Z,2.00
2018-03-20T15:11:06.662Z,1.35
2018-03-20T15:13:34.841Z,1.35
2018-03-20T15:16:03.041Z,1.60
2018-03-20T15:18:31.933Z,1.30
2018-03-20T15:21:00.063Z,1.83
2018-03-20T15:23:28.208Z,2.10
2018-03-20T15:25:56.324Z,1.60
2018-03-20T15:28:24.482Z,10.65
2018-03-20T15:30:52.615Z,3.78
2018-03-20T15:33:20.794Z,5.15
2018-03-20T15:35:48.951Z,11.85
2018-03-20T15:38:17.101Z,6.95
2018-03-20T15:40:45.289Z,3.20
2018-03-20T15:43:14.290Z,2.40
2018-03-20T15:45:42.486Z,1.80
2018-03-20T15:48:10.658Z,2.92
2018-03-20T15:50:38.866Z,4.43
2018-03-20T15:53:07.062Z,2.45
2018-03-20T15:55:35.289Z,6.60
2018-03-20T15:58:03.468Z,2.45
2018-03-20T16:00:31.638Z,1.70
2018-03-20T16:02:59.880Z,3.17
2018-03-20T16:05:28.033Z,1.20
2018-03-20T16:07:56.229Z,2.87
2018-03-20T16:10:24.387Z,1.45
2018-03-20T16:12:52.573Z,1.30
2018-03-20T16:15:20.821Z,1.70
2018-03-20T16:17:49.066Z,4.50
2018-03-20T16:20:17.291Z,1.55
2018-03-20T16:22:45.480Z,2.95
2018-03-20T16:25:13.650Z,2.80
2018-03-20T16:27:42.615Z,2.10
2018-03-20T16:30:10.761Z,2.25
2018-03-20T16:32:39.035Z,2.03
2018-03-20T16:35:07.306Z,4.43
2018-03-20T16:37:35.535Z,2.75
2018-03-20T16:40:04.548Z,3.05
2018-03-20T16:42:32.800Z,1.92
2018-03-20T16:45:01.187Z,1.52
2018-03-20T16:47:29.464Z,2.70
2018-03-20T16:49:57.607Z,3.70
2018-03-20T16:52:25.857Z,5.93
2018-03-20T16:54:54.139Z,4.47
2018-03-20T16:57:22.289Z,6.25
2018-03-20T16:59:50.499Z,2.05
2018-03-20T17:02:19.457Z,6.25
2018-03-20T17:04:47.682Z,3.22
2018-03-20T17:07:15.848Z,1.90
2018-03-20T17:09:44.001Z,4.60
2018-03-20T17:12:12.174Z,3.00
2018-03-20T17:14:40.298Z,3.97
2018-03-20T17:17:09.236Z,5.55
2018-03-20T17:19:37.363Z,8.25
2018-03-20T17:22:06.273Z,10.40
2018-03-20T17:24:34.389Z,8.52
2018-03-20T17:27:02.546Z,7.78
2018-03-20T17:29:30.669Z,9.68
2018-03-20T17:31:58.837Z,5.25
2018-03-20T17:34:26.961Z,4.78
2018-03-20T17:36:55.180Z,3.10
2018-03-20T17:39:23.342Z,2.25
2018-03-20T17:41:51.557Z,2.85
2018-03-20T17:44:19.771Z,2.62
2018-03-20T17:46:48.292Z,4.07
2018-03-20T17:49:16.740Z,2.10
2018-03-20T17:51:44.944Z,1.90
2018-03-20T17:54:13.161Z,2.92
2018-03-20T17:56:41.414Z,2.00
2018-03-20T17:59:10.074Z,1.65
2018-03-20T18:01:38.372Z,1.70
2018-03-20T18:04:06.916Z,2.87
2018-03-20T18:06:35.847Z,2.12
2018-03-20T18:09:04.223Z,4.00
2018-03-20T18:11:32.550Z,2.85
2018-03-20T18:14:00.750Z,1.87
2018-03-20T18:16:28.878Z,2.10
2018-03-20T18:18:57.046Z,2.62
2018-03-20T18:21:25.173Z,3.50
2018-03-20T18:23:53.339Z,2.12
2018-03-20T18:26:21.658Z,1.30
2018-03-20T18:28:50.289Z,2.28
2018-03-20T18:31:19.143Z,2.35
2018-03-20T18:33:47.697Z,4.22
2018-03-20T18:36:17.160Z,1.40
2018-03-20T18:38:45.612Z,1.52
2018-03-20T18:41:13.814Z,2.97
2018-03-20T18:43:43.284Z,2.72
2018-03-20T18:46:11.744Z,1.15
2018-03-20T18:48:40.102Z,1.48
2018-03-20T18:51:09.891Z,1.70
2018-03-20T18:53:39.102Z,1.92
2018-03-20T18:56:07.339Z,3.47
2018-03-20T18:58:35.703Z,3.70
2018-03-20T19:01:04.308Z,5.10
2018-03-20T19:03:33.912Z,1.40
2018-03-20T19:06:02.200Z,4.20
2018-03-20T19:08:31.732Z,5.97
2018-03-20T19:11:00.268Z,5.15
2018-03-20T19:13:28.793Z,2.00
2018-03-20T19:15:57.090Z,6.37
2018-03-20T19:18:26.037Z,5.93
2018-03-20T19:20:54.203Z,6.50
2018-03-20T19:23:22.349Z,4.70
2018-03-20T19:25:50.532Z,1.92
2018-03-20T19:28:18.685Z,2.15
2018-03-20T19:30:47.039Z,3.35
2018-03-20T19:33:15.283Z,3.90
2018-03-20T19:35:44.127Z,3.22
2018-03-20T19:38:12.286Z,2.78
2018-03-20T19:40:40.487Z,4.20
2018-03-20T19:43:09.255Z,2.78
2018-03-20T19:45:37.636Z,2.45
2018-03-20T19:48:05.855Z,1.87
2018-03-20T19:50:34.019Z,1.40
2018-03-20T19:53:02.393Z,2.22
2018-03-20T19:55:30.793Z,2.10
2018-03-20T19:57:59.179Z,2.45
2018-03-20T20:00:27.378Z,2.47
2018-03-20T20:02:55.866Z,5.10
2018-03-20T20:05:25.709Z,1.67
2018-03-20T20:07:53.926Z,1.50
2018-03-20T20:10:22.107Z,3.08
2018-03-20T20:12:50.266Z,5.05
2018-03-20T20:15:18.426Z,12.15
2018-03-20T20:17:46.574Z,6.25
2018-03-20T20:20:15.240Z,5.53
2018-03-20T20:22:44.182Z,8.20
2018-03-20T20:25:12.525Z,8.68
2018-03-20T20:27:41.430Z,11.50
2018-03-20T20:30:09.612Z,12.52
2018-03-20T20:32:37.878Z,12.75
2018-03-20T20:35:06.030Z,9.38
2018-03-20T20:37:34.191Z,4.55
2018-03-20T20:40:02.358Z,3.33
2018-03-20T20:42:30.529Z,4.28
2018-03-20T20:44:58.681Z,4.35
2018-03-20T20:47:26.834Z,2.28
2018-03-20T20:49:54.988Z,4.80
2018-03-20T20:52:23.319Z,5.18
2018-03-20T20:54:51.527Z,4.35
2018-03-20T20:57:20.466Z,2.75
2018-03-20T20:59:50.155Z,2.50
2018-03-20T21:02:19.206Z,3.17
2018-03-20T21:04:47.463Z,7.40
2018-03-20T21:07:16.254Z,4.72
2018-03-20T21:09:44.439Z,5.05
2018-03-20T21:12:12.608Z,2.70
2018-03-20T21:14:41.430Z,11.23
2018-03-20T21:17:17.174Z,2.90
2018-03-20T21:19:48.602Z,2.90
2018-03-20T21:22:23.745Z,2.35
2018-03-20T21:24:52.007Z,4.32
2018-03-20T21:30:40.091Z,3.10
2018-03-20T21:33:08.346Z,2.97
2018-03-20T21:35:37.288Z,2.87
2018-03-20T21:38:05.429Z,3.33
2018-03-20T21:40:33.586Z,6.30
2018-03-20T21:43:01.730Z,2.78
2018-03-20T21:45:29.930Z,4.05
2018-03-20T21:47:58.066Z,5.62
2018-03-20T21:50:26.247Z,4.25
2018-03-20T21:52:54.383Z,3.75
2018-03-20T21:55:22.539Z,5.10
2018-03-20T21:57:50.733Z,4.80
2018-03-20T22:00:19.661Z,3.90
2018-03-20T22:02:47.798Z,5.53
2018-03-20T22:05:16.845Z,3.85
2018-03-20T22:07:44.984Z,4.00
2018-03-20T22:10:13.139Z,7.10
2018-03-20T22:12:41.270Z,5.43
2018-03-20T22:15:09.422Z,7.70
2018-03-20T22:17:37.551Z,8.38
2018-03-20T22:20:05.707Z,5.68
2018-03-20T22:22:33.838Z,5.10
2018-03-20T22:25:02.044Z,4.50
2018-03-20T22:27:30.178Z,4.60
2018-03-20T22:29:58.349Z,6.10
2018-03-20T22:32:26.485Z,6.20
2018-03-20T22:34:54.643Z,6.12
2018-03-20T22:37:22.796Z,4.55
2018-03-20T22:39:50.958Z,6.12
2018-03-20T22:42:19.084Z,5.03
2018-03-20T22:44:47.237Z,6.12
2018-03-20T22:47:15.418Z,5.03
2018-03-20T22:49:43.571Z,4.32
2018-03-20T22:52:11.722Z,4.60
2018-03-20T22:54:39.882Z,7.20
2018-03-20T22:57:08.009Z,5.85
2018-03-20T22:59:36.161Z,6.60
2018-03-20T23:02:04.289Z,6.90
2018-03-20T23:04:33.215Z,5.20
2018-03-20T23:07:01.337Z,4.55
2018-03-20T23:09:29.493Z,4.32
2018-03-20T23:11:57.630Z,4.28
2018-03-20T23:14:25.786Z,5.45
2018-03-20T23:16:53.917Z,5.37
2018-03-20T23:19:22.065Z,6.97
2018-03-20T23:21:50.201Z,5.87
2018-03-20T23:24:18.349Z,4.07
2018-03-20T23:26:46.482Z,4.70
2018-03-20T23:29:14.637Z,4.65
2018-03-20T23:31:42.761Z,4.65
2018-03-20T23:34:10.934Z,10.68
2018-03-20T23:36:39.060Z,4.10
2018-03-20T23:39:07.197Z,6.50
2018-03-20T23:41:36.123Z,4.37
2018-03-20T23:44:04.259Z,4.28
2018-03-20T23:46:32.411Z,5.00
2018-03-20T23:49:00.538Z,5.15
2018-03-20T23:51:28.697Z,9.00
2018-03-20T23:53:56.830Z,4.07
2018-03-20T23:56:24.989Z,5.57
2018-03-20T23:58:53.118Z,6.68
